Time;durP1;ratioP1;P1;durP2;ratioP2;P2;SDS_P1;SDS_P2;PMS_P1;PMS_P2;Temp;Humidity;BMP_temperature;BMP_pressure;BME280_temperature;BME280_humidity;BME280_pressure;Samples;Min_cycle;Max_cycle;Signal;HPM_P1;HPM_P2
2022/05/19 00:02:07;;;;;;;;;;;;;;;33.82;24.94;100640.13;4411970;32;19962;-70
2022/05/19 00:04:32;;;;;;;;;;;;;;;34.02;24.87;100653.47;4414538;32;19958;-70
2022/05/19 00:06:58;;;;;;;;;;;;;;;33.89;25.23;100653.87;4411544;32;20365;-71
2022/05/19 00:09:24;;;;;;;;;;;;;;;33.82;25.15;100651.03;4399385;32;20387;-70
2022/05/19 00:11:50;;;;;;;;;;;;;;;34.07;24.86;100643.69;4402576;32;19972;-70
2022/05/19 00:14:16;;;;;;;;;;;;;;;33.94;25.04;100646.22;4412475;32;20204;-70
2022/05/19 00:16:42;;;;;;;;;;;;;;;33.58;25.16;100631.47;4400996;32;19958;-70
2022/05/19 00:19:07;;;;;;;;;;;;;;;33.54;24.77;100631.16;4415418;32;20409;-71
2022/05/19 00:21:32;;;;;;;;;;;;;;;33.68;24.98;100641.84;4415077;32;20400;-70
2022/05/19 00:23:58;;;;;;;;;;;;;;;33.31;25.22;100648.16;4412770;32;19990;-70
2022/05/19 00:26:23;;;;;;;;;;;;;;;33.76;24.78;100642.53;4412286;32;20305;-70
2022/05/19 00:28:49;;;;;;;;;;;;;;;33.46;24.97;100633.37;4415195;32;19976;-70
2022/05/19 00:31:15;;;;;;;;;;;;;;;33.90;24.37;100619.59;4413763;32;19991;-70
2022/05/19 00:33:41;;;;;;;;;;;;;;;33.55;24.81;100615.19;4415686;32;19982;-70
2022/05/19 00:36:15;;;;;;;;;;;;;;;33.85;24.40;100609.72;4415168;32;20001;-70
2022/05/19 00:38:41;;;;;;;;;;;;;;;33.54;24.36;100617.34;4415667;32;20056;-70
2022/05/19 00:41:07;;;;;;;;;;;;;;;33.98;24.30;100623.94;4413781;32;20025;-70
2022/05/19 00:43:36;;;;;;;;;;;;;;;34.15;24.12;100620.97;4417141;32;20347;-70
2022/05/19 00:46:19;;;;;;;;;;;;;;;34.49;23.79;100630.97;4415619;32;20001;-69
2022/05/19 00:51:42;;;;;;;;;;;;;;;34.17;24.32;100617.44;3949671;32;15775460;-70
2022/05/19 00:54:12;;;;;;;;;;;;;;;34.17;24.32;100617.44;4422454;32;19971;-70
2022/05/19 00:56:44;;;;;;;;;;;;;;;33.66;24.62;100605.91;4422139;32;20089;-70
2022/05/19 00:59:11;;;;;;;;;;;;;;;33.72;24.58;100601.34;4422279;32;20365;-70
2022/05/19 01:01:38;;;;;;;;;;;;;;;33.84;24.56;100599.37;4422161;32;19997;-70
2022/05/19 01:04:06;;;;;;;;;;;;;;;33.66;24.65;100592.09;4419752;32;20312;-70
2022/05/19 01:06:33;;;;;;;;;;;;;;;33.67;24.89;100595.75;4422709;32;19968;-71
2022/05/19 01:11:36;;;;;;;;;;;;;;;33.61;24.82;100586.50;3952349;32;15724566;-70
2022/05/19 01:14:02;;;;;;;;;;;;;;;33.48;24.76;100595.63;4426983;32;19997;-70
2022/05/19 01:16:30;;;;;;;;;;;;;;;33.45;24.94;100605.59;4426375;32;20631;-70
2022/05/19 01:18:56;;;;;;;;;;;;;;;33.41;24.97;100608.16;4425810;32;19984;-70
2022/05/19 01:21:22;;;;;;;;;;;;;;;33.08;25.36;100609.69;4426209;32;20305;-70
2022/05/19 01:23:53;;;;;;;;;;;;;;;33.05;24.93;100607.97;4423207;32;20093;-70
2022/05/19 01:26:38;;;;;;;;;;;;;;;33.12;24.96;100607.91;4426409;32;19979;-70
2022/05/19 01:29:04;;;;;;;;;;;;;;;33.34;24.85;100600.25;4426105;32;20369;-70
2022/05/19 01:31:32;;;;;;;;;;;;;;;33.34;24.89;100603.94;4429161;32;20030;-70
2022/05/19 01:33:58;;;;;;;;;;;;;;;33.39;25.06;100619.66;4425298;32;20595;-69
2022/05/19 01:36:24;;;;;;;;;;;;;;;33.40;25.01;100612.44;4427771;32;19982;-69
2022/05/19 01:38:56;;;;;;;;;;;;;;;33.21;25.09;100618.88;4426132;32;20365;-70
2022/05/19 01:41:24;;;;;;;;;;;;;;;33.35;25.06;100625.91;4425393;32;20748;-70
2022/05/19 01:46:43;;;;;;;;;;;;;;;33.85;24.61;100638.91;3950998;32;15724543;-70
2022/05/19 01:49:15;;;;;;;;;;;;;;;33.85;24.61;100638.91;4432138;32;21094;-70
2022/05/19 01:54:37;;;;;;;;;;;;;;;33.53;24.60;100623.78;3951505;32;15723280;-70
2022/05/19 01:59:43;;;;;;;;;;;;;;;33.35;24.55;100658.00;3951112;32;15724546;-70
2022/05/19 02:02:12;;;;;;;;;;;;;;;33.35;24.55;100658.00;4423830;32;19969;-70
2022/05/19 02:04:45;;;;;;;;;;;;;;;33.08;24.91;100670.94;4423408;32;19989;-70
2022/05/19 02:07:13;;;;;;;;;;;;;;;33.00;24.87;100656.44;4427674;32;19972;-70
2022/05/19 02:09:49;;;;;;;;;;;;;;;32.92;25.00;100647.00;4426390;32;19985;-70
2022/05/19 02:12:14;;;;;;;;;;;;;;;32.98;25.14;100647.53;4424144;32;20009;-70
2022/05/19 02:14:45;;;;;;;;;;;;;;;32.99;24.87;100636.63;4427020;32;20402;-70
2022/05/19 02:17:12;;;;;;;;;;;;;;;32.96;24.92;100647.34;4424499;32;19997;-70
2022/05/19 02:19:40;;;;;;;;;;;;;;;32.56;25.40;100643.78;4427376;32;20009;-70
2022/05/19 02:22:09;;;;;;;;;;;;;;;32.44;25.28;100640.59;4424859;32;20113;-70
2022/05/19 02:24:37;;;;;;;;;;;;;;;32.40;25.01;100640.22;4425422;32;20071;-70
2022/05/19 02:27:23;;;;;;;;;;;;;;;32.71;25.01;100643.66;4424781;32;20028;-70
2022/05/19 02:29:49;;;;;;;;;;;;;;;32.75;25.15;100643.22;4425493;32;19996;-70
2022/05/19 02:32:15;;;;;;;;;;;;;;;32.43;25.59;100639.03;4426105;32;19969;-70
2022/05/19 02:34:40;;;;;;;;;;;;;;;32.55;25.14;100640.09;4425737;32;19990;-70
2022/05/19 02:37:06;;;;;;;;;;;;;;;32.30;25.56;100638.50;4424155;32;19997;-70
2022/05/19 02:39:32;;;;;;;;;;;;;;;32.52;25.16;100638.38;4424537;32;20036;-70
2022/05/19 02:41:58;;;;;;;;;;;;;;;32.23;25.40;100630.63;4427242;32;20374;-70
2022/05/19 02:44:23;;;;;;;;;;;;;;;32.08;25.25;100633.63;4425272;32;20327;-70
2022/05/19 02:46:49;;;;;;;;;;;;;;;31.68;25.92;100636.53;4427305;32;20424;-70
2022/05/19 02:49:15;;;;;;;;;;;;;;;32.25;25.74;100630.81;4425393;32;20371;-70
2022/05/19 02:51:40;;;;;;;;;;;;;;;31.83;26.20;100624.06;4426319;32;19997;-70
2022/05/19 02:54:06;;;;;;;;;;;;;;;31.57;26.22;100631.16;4424021;32;20016;-69
2022/05/19 02:56:32;;;;;;;;;;;;;;;31.33;26.66;100626.03;4424011;32;19961;-69
2022/05/19 02:58:58;;;;;;;;;;;;;;;31.63;26.28;100622.97;4425919;32;20045;-69
2022/05/19 03:01:23;;;;;;;;;;;;;;;31.61;26.22;100622.03;4423315;32;19965;-69
2022/05/19 03:03:49;;;;;;;;;;;;;;;31.35;26.56;100629.09;4424759;32;19969;-69
2022/05/19 03:06:15;;;;;;;;;;;;;;;31.70;26.06;100630.91;4423409;32;21126;-69
2022/05/19 03:08:40;;;;;;;;;;;;;;;31.56;26.10;100625.91;4428329;32;20000;-69
2022/05/19 03:11:06;;;;;;;;;;;;;;;31.88;25.85;100631.81;4414898;32;20008;-69
2022/05/19 03:13:32;;;;;;;;;;;;;;;31.48;26.35;100623.06;4412484;32;19979;-69
2022/05/19 03:15:57;;;;;;;;;;;;;;;31.42;26.27;100631.25;4400852;32;20418;-69
2022/05/19 03:18:23;;;;;;;;;;;;;;;31.97;25.69;100634.84;4412937;32;20036;-69
2022/05/19 03:20:49;;;;;;;;;;;;;;;32.18;25.30;100638.22;4415617;32;19962;-69
2022/05/19 03:23:15;;;;;;;;;;;;;;;32.34;25.25;100630.19;4415399;32;19957;-69
2022/05/19 03:25:41;;;;;;;;;;;;;;;32.65;24.98;100634.38;4414265;32;19966;-69
2022/05/19 03:28:07;;;;;;;;;;;;;;;32.56;25.06;100637.97;4413798;32;20090;-69
2022/05/19 03:30:32;;;;;;;;;;;;;;;32.67;24.98;100640.37;4399007;32;20339;-69
2022/05/19 03:32:58;;;;;;;;;;;;;;;32.33;25.28;100620.63;4412616;32;20044;-69
2022/05/19 03:35:23;;;;;;;;;;;;;;;31.62;25.84;100617.75;4398453;32;19992;-69
2022/05/19 03:37:49;;;;;;;;;;;;;;;31.95;25.35;100616.44;4414730;32;19976;-69
2022/05/19 03:40:16;;;;;;;;;;;;;;;31.99;25.45;100622.63;4414282;32;19990;-69
2022/05/19 03:42:42;;;;;;;;;;;;;;;32.10;25.26;100630.91;4413792;32;20364;-69
2022/05/19 03:45:08;;;;;;;;;;;;;;;32.54;24.82;100638.56;4414991;32;19965;-69
2022/05/19 03:47:33;;;;;;;;;;;;;;;32.37;25.06;100629.75;4413206;32;20363;-69
2022/05/19 03:49:59;;;;;;;;;;;;;;;32.37;25.14;100634.81;4414000;32;20057;-69
2022/05/19 03:52:25;;;;;;;;;;;;;;;32.61;24.86;100634.03;4413410;32;20575;-69
2022/05/19 03:54:51;;;;;;;;;;;;;;;32.72;24.73;100639.38;4414079;32;19962;-69
2022/05/19 03:57:21;;;;;;;;;;;;;;;32.53;24.90;100639.16;4414643;32;20508;-69
2022/05/19 03:59:47;;;;;;;;;;;;;;;32.57;24.67;100651.94;4414754;32;20293;-69
2022/05/19 04:02:12;;;;;;;;;;;;;;;32.20;25.20;100652.97;4413091;32;20340;-69
2022/05/19 04:04:38;;;;;;;;;;;;;;;32.10;25.17;100663.72;4412320;32;19984;-69
2022/05/19 04:07:03;;;;;;;;;;;;;;;32.06;25.23;100653.84;4417774;32;20468;-69
2022/05/19 04:09:29;;;;;;;;;;;;;;;32.13;25.03;100665.44;4415475;32;20010;-69
2022/05/19 04:11:55;;;;;;;;;;;;;;;32.06;25.02;100663.34;4414873;32;19958;-70
2022/05/19 04:14:21;;;;;;;;;;;;;;;32.11;24.91;100656.53;4415059;32;19957;-70
2022/05/19 04:16:49;;;;;;;;;;;;;;;31.57;25.50;100648.59;4412751;32;20035;-70
2022/05/19 04:19:15;;;;;;;;;;;;;;;31.91;25.11;100654.69;4413999;32;20453;-70
2022/05/19 04:21:41;;;;;;;;;;;;;;;32.38;24.58;100659.66;4413797;32;20356;-70
2022/05/19 04:24:06;;;;;;;;;;;;;;;32.36;24.67;100660.25;4415228;32;19997;-70
2022/05/19 04:26:32;;;;;;;;;;;;;;;32.61;24.61;100660.28;4412837;32;19976;-70
2022/05/19 04:28:58;;;;;;;;;;;;;;;32.36;24.52;100654.44;4413693;32;20399;-70
2022/05/19 04:31:23;;;;;;;;;;;;;;;32.60;24.28;100662.41;4412137;32;20318;-70
2022/05/19 04:33:49;;;;;;;;;;;;;;;32.67;24.34;100654.19;4414344;32;19961;-70
2022/05/19 04:36:14;;;;;;;;;;;;;;;32.32;24.61;100656.19;4411942;32;20005;-70
2022/05/19 04:38:40;;;;;;;;;;;;;;;32.45;24.27;100661.75;4413800;32;19950;-70
2022/05/19 04:41:05;;;;;;;;;;;;;;;32.73;24.20;100655.47;4412657;32;19949;-70
2022/05/19 04:43:31;;;;;;;;;;;;;;;32.80;24.24;100656.78;4414279;32;20008;-70
2022/05/19 04:45:56;;;;;;;;;;;;;;;33.03;23.95;100663.19;4415184;32;20086;-70
2022/05/19 04:48:23;;;;;;;;;;;;;;;33.04;23.74;100671.34;4414153;32;20302;-70
2022/05/19 04:50:50;;;;;;;;;;;;;;;32.88;23.74;100658.28;4416160;32;19988;-69
2022/05/19 04:53:16;;;;;;;;;;;;;;;33.08;23.48;100662.19;4414253;32;19953;-70
2022/05/19 04:55:41;;;;;;;;;;;;;;;33.07;23.50;100667.22;4399233;32;20034;-70
2022/05/19 04:58:07;;;;;;;;;;;;;;;32.67;23.84;100661.56;4412548;32;20303;-70
2022/05/19 05:00:34;;;;;;;;;;;;;;;32.68;23.77;100674.75;4414019;32;20313;-70
2022/05/19 05:02:59;;;;;;;;;;;;;;;32.93;23.53;100680.59;4415322;32;20055;-70
2022/05/19 05:05:25;;;;;;;;;;;;;;;32.97;23.16;100686.78;4411297;32;20011;-70
2022/05/19 05:07:50;;;;;;;;;;;;;;;33.10;23.29;100688.63;4411963;32;20412;-70
2022/05/19 05:10:16;;;;;;;;;;;;;;;33.39;22.97;100690.47;4412324;32;19965;-70
2022/05/19 05:12:41;;;;;;;;;;;;;;;33.44;22.79;100691.59;4413478;32;19993;-70
2022/05/19 05:15:07;;;;;;;;;;;;;;;33.53;22.68;100685.81;4411959;32;19962;-70
2022/05/19 05:17:33;;;;;;;;;;;;;;;33.56;22.64;100695.53;4412092;32;21210;-70
2022/05/19 05:20:00;;;;;;;;;;;;;;;33.77;22.31;100692.91;4413367;32;20015;-70
2022/05/19 05:22:26;;;;;;;;;;;;;;;33.98;22.29;100693.25;4411325;32;19993;-70
2022/05/19 05:24:51;;;;;;;;;;;;;;;33.85;22.07;100685.63;4414085;32;20015;-70
2022/05/19 05:27:17;;;;;;;;;;;;;;;34.11;21.37;100684.91;4413364;32;20011;-70
2022/05/19 05:29:42;;;;;;;;;;;;;;;34.38;21.71;100690.75;4397031;32;20173;-70
2022/05/19 05:32:08;;;;;;;;;;;;;;;34.48;21.48;100700.34;4397934;32;19961;-70
2022/05/19 05:34:34;;;;;;;;;;;;;;;34.30;21.53;100681.31;4415416;32;20339;-70
2022/05/19 05:37:03;;;;;;;;;;;;;;;34.72;20.73;100686.94;4412500;32;20354;-70
2022/05/19 05:39:30;;;;;;;;;;;;;;;34.88;21.47;100689.00;4412953;32;20001;-70
2022/05/19 05:41:55;;;;;;;;;;;;;;;35.07;21.38;100694.91;4414062;32;19992;-70
2022/05/19 05:44:21;;;;;;;;;;;;;;;35.19;21.49;100692.94;4412258;32;19996;-70
2022/05/19 05:46:46;;;;;;;;;;;;;;;35.21;21.78;100704.78;4413919;32;20283;-70
2022/05/19 05:49:12;;;;;;;;;;;;;;;35.29;21.70;100708.34;4413657;32;20339;-70
2022/05/19 05:51:38;;;;;;;;;;;;;;;35.21;21.50;100712.78;4412123;32;20016;-70
2022/05/19 05:54:03;;;;;;;;;;;;;;;35.27;20.82;100705.25;4411340;32;20307;-70
2022/05/19 05:56:29;;;;;;;;;;;;;;;35.05;21.11;100693.97;4414092;32;20351;-70
2022/05/19 05:58:55;;;;;;;;;;;;;;;35.09;21.12;100706.75;4411884;32;20296;-70
2022/05/19 06:01:21;;;;;;;;;;;;;;;35.23;20.92;100702.03;4410285;32;20024;-70
2022/05/19 06:03:47;;;;;;;;;;;;;;;35.34;20.77;100713.12;4413853;32;19989;-69
2022/05/19 06:06:13;;;;;;;;;;;;;;;35.49;20.55;100720.88;4411759;32;20406;-70
2022/05/19 06:08:39;;;;;;;;;;;;;;;35.38;20.29;100719.31;4410202;32;20005;-70
2022/05/19 06:11:05;;;;;;;;;;;;;;;35.76;19.84;100719.34;4413202;32;19988;-69
2022/05/19 06:13:30;;;;;;;;;;;;;;;35.79;20.21;100723.97;4410840;32;19989;-69
2022/05/19 06:15:56;;;;;;;;;;;;;;;35.20;20.10;100717.09;4411667;32;20309;-70
2022/05/19 06:18:21;;;;;;;;;;;;;;;35.54;20.23;100716.84;4412534;32;20045;-70
2022/05/19 06:20:47;;;;;;;;;;;;;;;35.87;19.87;100715.81;4411591;32;19965;-70
2022/05/19 06:23:16;;;;;;;;;;;;;;;36.09;19.95;100714.56;4415550;32;20043;-69
2022/05/19 06:25:42;;;;;;;;;;;;;;;36.38;19.88;100723.28;4412849;32;20076;-70
2022/05/19 06:28:07;;;;;;;;;;;;;;;36.03;19.89;100722.91;4414911;32;20005;-70
2022/05/19 06:30:33;;;;;;;;;;;;;;;36.30;19.79;100737.38;4413040;32;20783;-70
2022/05/19 06:32:58;;;;;;;;;;;;;;;36.00;19.62;100730.00;4412685;32;20017;-69
2022/05/19 06:35:27;;;;;;;;;;;;;;;36.17;19.59;100732.72;4410098;32;21307;-70
2022/05/19 06:37:53;;;;;;;;;;;;;;;36.22;19.57;100734.59;4412972;32;19953;-70
2022/05/19 06:40:19;;;;;;;;;;;;;;;36.22;19.60;100740.44;4403291;32;20350;-70
2022/05/19 06:42:46;;;;;;;;;;;;;;;36.55;19.27;100749.50;4409045;32;20004;-70
2022/05/19 06:45:14;;;;;;;;;;;;;;;36.59;19.15;100772.47;4408417;32;19962;-70
2022/05/19 06:47:40;;;;;;;;;;;;;;;37.03;18.98;100770.66;4407331;32;20077;-70
2022/05/19 06:50:08;;;;;;;;;;;;;;;36.86;18.86;100776.72;4408428;32;19961;-70
2022/05/19 06:52:40;;;;;;;;;;;;;;;36.69;18.92;100782.75;4407210;32;20503;-70
2022/05/19 06:55:06;;;;;;;;;;;;;;;37.12;18.83;100774.91;4407671;32;20355;-70
2022/05/19 06:57:31;;;;;;;;;;;;;;;37.23;18.82;100783.06;4406358;32;20026;-69
2022/05/19 06:59:57;;;;;;;;;;;;;;;36.73;18.98;100794.81;4408510;32;20061;-69
2022/05/19 07:02:24;;;;;;;;;;;;;;;36.91;18.91;100796.19;4410354;32;20439;-69
2022/05/19 07:04:50;;;;;;;;;;;;;;;36.26;19.01;100794.88;4407673;32;19968;-69
2022/05/19 07:07:16;;;;;;;;;;;;;;;37.12;18.69;100786.66;4405175;32;19953;-69
2022/05/19 07:09:42;;;;;;;;;;;;;;;37.47;17.68;100779.69;4390240;32;19996;-69
2022/05/19 07:12:09;;;;;;;;;;;;;;;37.24;18.14;100779.50;4406374;32;20020;-69
2022/05/19 07:14:35;;;;;;;;;;;;;;;37.22;18.23;100791.12;4407780;32;20045;-69
2022/05/19 07:17:00;;;;;;;;;;;;;;;37.24;18.31;100790.50;4411348;32;20001;-68
2022/05/19 07:22:15;;;;;;;;;;;;;;;36.57;18.82;100808.28;4406046;32;20038;-69
2022/05/19 07:24:40;;;;;;;;;;;;;;;37.57;18.59;100808.97;4405164;32;19985;-69
2022/05/19 07:27:06;;;;;;;;;;;;;;;37.70;18.04;100814.34;4405073;32;19974;-69
2022/05/19 07:29:32;;;;;;;;;;;;;;;37.74;18.02;100811.69;4406062;32;20355;-69
2022/05/19 07:32:00;;;;;;;;;;;;;;;38.23;17.79;100801.88;4407575;32;20022;-70
2022/05/19 07:34:27;;;;;;;;;;;;;;;37.93;17.88;100799.78;4408611;32;20286;-69
2022/05/19 07:36:53;;;;;;;;;;;;;;;37.21;18.29;100798.38;4408529;32;19989;-69
2022/05/19 07:39:20;;;;;;;;;;;;;;;37.28;18.36;100797.41;4410562;32;20701;-69
2022/05/19 07:41:46;;;;;;;;;;;;;;;37.12;18.49;100805.00;4410216;32;20062;-70
2022/05/19 07:44:12;;;;;;;;;;;;;;;37.78;18.06;100791.38;4408905;32;19965;-69
2022/05/19 07:46:37;;;;;;;;;;;;;;;37.86;17.54;100783.13;4411650;32;20012;-70
2022/05/19 07:49:03;;;;;;;;;;;;;;;38.25;17.68;100763.75;4406451;32;20001;-70
2022/05/19 07:51:36;;;;;;;;;;;;;;;37.74;17.96;100782.31;4407186;32;20658;-70
2022/05/19 07:54:03;;;;;;;;;;;;;;;38.52;17.29;100798.63;4406915;32;20417;-70
2022/05/19 07:56:29;;;;;;;;;;;;;;;38.12;17.70;100802.56;4407581;32;20202;-71
2022/05/19 07:58:54;;;;;;;;;;;;;;;38.24;17.16;100797.50;4406730;32;20428;-71
2022/05/19 08:01:20;;;;;;;;;;;;;;;38.06;17.54;100790.38;4409404;32;19953;-71
2022/05/19 08:03:45;;;;;;;;;;;;;;;38.41;17.10;100787.59;4403593;32;20373;-70
2022/05/19 08:06:11;;;;;;;;;;;;;;;38.40;17.19;100786.06;4406752;32;20005;-70
2022/05/19 08:08:39;;;;;;;;;;;;;;;37.90;17.27;100778.31;4406871;32;20543;-70
2022/05/19 08:11:04;;;;;;;;;;;;;;;37.54;17.54;100784.56;4407816;32;20001;-69
2022/05/19 08:16:15;;;;;;;;;;;;;;;38.12;17.50;100801.81;4406877;32;20027;-70
2022/05/19 08:18:41;;;;;;;;;;;;;;;37.80;17.46;100804.03;4403078;32;20413;-69
2022/05/19 08:21:11;;;;;;;;;;;;;;;38.52;16.78;100804.50;4408502;32;20347;-69
2022/05/19 08:23:39;;;;;;;;;;;;;;;38.27;17.27;100790.38;4407923;32;20013;-69
2022/05/19 08:26:04;;;;;;;;;;;;;;;38.20;17.06;100788.44;4407588;32;20013;-70
2022/05/19 08:28:31;;;;;;;;;;;;;;;38.38;16.96;100780.84;4409420;32;19992;-70
2022/05/19 08:31:03;;;;;;;;;;;;;;;38.22;16.82;100790.75;4410072;32;20441;-70
2022/05/19 08:33:29;;;;;;;;;;;;;;;38.50;16.72;100786.75;4406224;32;19972;-69
2022/05/19 08:35:55;;;;;;;;;;;;;;;38.76;16.72;100788.47;4405402;32;20019;-70
2022/05/19 08:38:21;;;;;;;;;;;;;;;39.10;16.26;100803.25;4406877;32;20012;-71
2022/05/19 08:40:50;;;;;;;;;;;;;;;39.25;16.28;100811.56;4401646;32;20426;-70
2022/05/19 08:43:17;;;;;;;;;;;;;;;39.05;16.37;100815.41;4403472;32;20327;-71
2022/05/19 08:45:47;;;;;;;;;;;;;;;39.30;16.04;100822.19;4407537;32;20000;-71
2022/05/19 08:48:19;;;;;;;;;;;;;;;39.04;15.91;100840.34;4408030;32;20020;-72
2022/05/19 08:50:49;;;;;;;;;;;;;;;38.84;15.61;100836.87;4407956;32;20033;-70
2022/05/19 08:53:14;;;;;;;;;;;;;;;39.10;15.57;100841.53;4405567;32;19997;-71
2022/05/19 08:55:41;;;;;;;;;;;;;;;37.21;17.13;100839.47;4408960;32;21114;-72
2022/05/19 09:00:46;;;;;;;;;;;;;;;38.07;16.45;100866.69;3935504;32;15726540;-71
2022/05/19 09:05:58;;;;;;;;;;;;;;;38.67;16.14;100878.38;3946217;32;15724879;-70
2022/05/19 09:16:21;;;;;;;;;;;;;;;38.86;15.90;100915.69;3944543;32;15726333;-69
2022/05/19 09:18:52;;;;;;;;;;;;;;;38.86;15.90;100915.69;4426279;32;19988;-71
2022/05/19 09:21:18;;;;;;;;;;;;;;;39.25;15.67;100925.63;4428668;32;20426;-70
2022/05/19 09:23:43;;;;;;;;;;;;;;;38.51;16.02;100924.34;4425854;32;20028;-70
2022/05/19 09:26:28;;;;;;;;;;;;;;;38.43;16.26;100923.78;4418738;32;19991;-70
2022/05/19 09:28:56;;;;;;;;;;;;;;;39.05;15.83;100925.09;4428886;32;19972;-70
2022/05/19 09:31:41;;;;;;;;;;;;;;;38.84;15.82;100924.38;4428945;32;20068;-70
2022/05/19 09:34:08;;;;;;;;;;;;;;;39.09;15.15;100915.75;4429003;32;20659;-70
2022/05/19 09:36:41;;;;;;;;;;;;;;;39.49;15.09;100927.22;4429415;32;20000;-70
2022/05/19 09:39:10;;;;;;;;;;;;;;;39.15;15.35;100925.00;4426656;32;20022;-71
2022/05/19 09:41:40;;;;;;;;;;;;;;;40.31;14.30;100929.53;4427543;32;20696;-70
2022/05/19 09:44:10;;;;;;;;;;;;;;;40.05;14.41;100938.87;4426011;32;19949;-70
2022/05/19 09:46:39;;;;;;;;;;;;;;;39.95;14.16;100947.09;4427737;32;20001;-70
2022/05/19 09:49:06;;;;;;;;;;;;;;;39.49;14.63;100957.47;4426944;32;20121;-70
2022/05/19 09:51:39;;;;;;;;;;;;;;;39.27;15.08;100964.81;4427747;32;20389;-70
2022/05/19 09:54:05;;;;;;;;;;;;;;;37.97;16.22;100965.41;4426713;32;19997;-70
2022/05/19 09:56:37;;;;;;;;;;;;;;;38.21;15.93;100969.28;4427365;32;19977;-70
2022/05/19 09:59:07;;;;;;;;;;;;;;;37.98;16.27;100975.75;4428724;32;20003;-70
2022/05/19 10:01:39;;;;;;;;;;;;;;;36.96;16.86;100982.84;4430113;32;19991;-71
2022/05/19 10:04:25;;;;;;;;;;;;;;;35.92;17.54;100977.62;4427191;32;20000;-70
2022/05/19 10:06:54;;;;;;;;;;;;;;;36.20;17.50;100989.37;4425497;32;20032;-70
2022/05/19 10:09:22;;;;;;;;;;;;;;;36.76;17.33;100993.06;4421237;32;20045;-71
2022/05/19 10:11:51;;;;;;;;;;;;;;;36.80;17.46;100990.44;4426036;32;20001;-70
2022/05/19 10:14:19;;;;;;;;;;;;;;;37.15;16.96;100988.69;4425282;32;19969;-72
2022/05/19 10:19:31;;;;;;;;;;;;;;;37.37;16.79;100981.56;3945581;32;15728582;-71
2022/05/19 10:41:01;;;;;;;;;;;;;;;38.86;14.83;101007.66;3940146;32;15722003;-70
2022/05/19 10:43:47;;;;;;;;;;;;;;;38.86;14.83;101007.66;4419212;32;20688;-70
2022/05/19 10:46:14;;;;;;;;;;;;;;;38.36;14.96;101000.44;4416402;32;20352;-70
2022/05/19 10:54:14;;;;;;;;;;;;;;;38.98;14.62;101014.41;3943755;32;15839361;-71
2022/05/19 10:59:31;;;;;;;;;;;;;;;39.40;14.58;101005.47;3943862;32;15727357;-72
2022/05/19 11:07:45;;;;;;;;;;;;;;;39.04;14.75;100999.31;3943224;32;15724341;-71
2022/05/19 11:15:38;;;;;;;;;;;;;;;37.91;15.29;100993.56;3942822;32;15724558;-71
2022/05/19 11:23:30;;;;;;;;;;;;;;;38.12;15.17;100992.87;3943445;32;15722367;-69
2022/05/19 11:26:31;;;;;;;;;;;;;;;38.02;14.94;100989.19;4421409;32;20048;-69
2022/05/19 11:34:35;;;;;;;;;;;;;;;38.56;15.04;101008.53;3937080;32;15818525;-69
2022/05/19 11:37:05;;;;;;;;;;;;;;;38.56;15.04;101008.53;4412210;32;20003;-69
2022/05/19 11:39:36;;;;;;;;;;;;;;;38.73;14.82;100995.69;4410496;32;20005;-69
2022/05/19 11:42:16;;;;;;;;;;;;;;;39.03;14.69;101001.50;4407072;32;19970;-70
2022/05/19 11:44:43;;;;;;;;;;;;;;;39.03;14.75;100991.91;4408310;32;20339;-71
2022/05/19 11:47:14;;;;;;;;;;;;;;;40.19;14.08;100984.78;4407006;32;20373;-71
2022/05/19 11:55:21;;;;;;;;;;;;;;;42.84;12.03;101000.03;4409586;32;20498;-69
2022/05/19 12:00:28;;;;;;;;;;;;;;;45.32;10.53;101001.16;3962691;32;15724970;-70
2022/05/19 12:02:57;;;;;;;;;;;;;;;45.32;10.53;101002.06;4437594;32;21133;-70
2022/05/19 12:05:28;;;;;;;;;;;;;;;43.09;12.11;100996.91;4439093;32;19986;-70
2022/05/19 12:07:57;;;;;;;;;;;;;;;42.71;12.35;100994.94;4441239;32;20357;-70
2022/05/19 12:10:25;;;;;;;;;;;;;;;42.86;12.26;100989.09;4443638;32;20279;-69
2022/05/19 12:12:57;;;;;;;;;;;;;;;42.82;12.46;100979.97;4444381;32;20116;-69
2022/05/19 12:15:25;;;;;;;;;;;;;;;41.66;13.27;100984.72;4430507;32;20421;-69
2022/05/19 12:17:56;;;;;;;;;;;;;;;43.09;12.25;100985.06;4438812;32;20252;-69
2022/05/19 12:20:41;;;;;;;;;;;;;;;43.94;11.78;100993.72;4444494;32;19993;-69
2022/05/19 12:25:52;;;;;;;;;;;;;;;44.08;12.06;100988.41;3927409;32;15823448;-70
2022/05/19 12:33:51;;;;;;;;;;;;;;;44.39;11.17;100973.53;4421655;32;19993;-70
2022/05/19 12:36:23;;;;;;;;;;;;;;;44.22;11.00;100979.41;4425894;32;20012;-69
2022/05/19 12:38:49;;;;;;;;;;;;;;;44.30;10.73;100974.62;4422735;32;20035;-69
2022/05/19 12:41:36;;;;;;;;;;;;;;;43.33;10.51;100970.66;4427110;32;20290;-70
2022/05/19 12:44:22;;;;;;;;;;;;;;;43.26;10.88;100975.56;4425287;32;19964;-70
2022/05/19 12:46:56;;;;;;;;;;;;;;;44.45;9.92;100970.84;4422558;32;20006;-72
2022/05/19 12:49:25;;;;;;;;;;;;;;;44.73;9.79;100959.47;4424722;32;19973;-70
2022/05/19 12:52:07;;;;;;;;;;;;;;;44.52;9.38;100969.69;4422165;32;19957;-71
2022/05/19 12:54:34;;;;;;;;;;;;;;;43.90;9.48;100974.97;4420566;32;20551;-71
2022/05/19 12:57:19;;;;;;;;;;;;;;;45.84;8.43;100983.41;4423869;32;19988;-71
2022/05/19 12:59:48;;;;;;;;;;;;;;;46.09;7.84;100970.97;4420296;32;19993;-71
2022/05/19 13:02:20;;;;;;;;;;;;;;;46.66;7.52;100970.84;4420351;32;20109;-71
2022/05/19 13:04:50;;;;;;;;;;;;;;;45.61;8.20;100969.06;4424157;32;20361;-71
2022/05/19 13:07:35;;;;;;;;;;;;;;;46.33;8.11;100968.13;4419663;32;20307;-70
2022/05/19 13:10:05;;;;;;;;;;;;;;;45.78;7.88;100977.22;4418764;32;20343;-70
2022/05/19 13:12:42;;;;;;;;;;;;;;;46.88;7.14;100971.63;4417221;32;20036;-71
2022/05/19 13:15:08;;;;;;;;;;;;;;;47.40;7.01;100976.34;4424139;32;20054;-71
2022/05/19 13:17:40;;;;;;;;;;;;;;;46.15;7.34;100967.47;4422266;32;20402;-71
2022/05/19 13:20:12;;;;;;;;;;;;;;;48.17;6.55;100980.25;4418061;32;21192;-70
2022/05/19 13:22:38;;;;;;;;;;;;;;;48.41;6.53;100962.25;4419886;32;20017;-70
2022/05/19 13:25:06;;;;;;;;;;;;;;;48.45;6.71;100968.34;4423398;32;20284;-71
2022/05/19 13:30:26;;;;;;;;;;;;;;;48.62;6.55;100961.38;4416633;32;20047;-71
2022/05/19 13:33:02;;;;;;;;;;;;;;;48.97;6.45;100975.75;4424286;32;19980;-71
2022/05/19 13:35:27;;;;;;;;;;;;;;;50.38;5.81;100975.97;4418912;32;20458;-72
2022/05/19 13:37:53;;;;;;;;;;;;;;;50.25;5.90;100977.94;4422867;32;19961;-71
2022/05/19 13:40:36;;;;;;;;;;;;;;;50.20;5.72;100975.59;4421885;32;20403;-70
2022/05/19 13:43:06;;;;;;;;;;;;;;;49.99;5.81;100974.41;4417144;32;19972;-72
2022/05/19 13:45:35;;;;;;;;;;;;;;;51.91;5.30;100982.25;4412386;32;19985;-71
2022/05/19 13:48:01;;;;;;;;;;;;;;;51.89;5.14;100982.97;4413922;32;19954;-71
2022/05/19 13:50:29;;;;;;;;;;;;;;;52.32;5.29;100976.03;4412604;32;20001;-71
2022/05/19 13:53:01;;;;;;;;;;;;;;;52.08;5.37;100984.00;4408800;32;19965;-71
2022/05/19 13:55:29;;;;;;;;;;;;;;;52.46;5.50;100988.22;4394886;32;20437;-71
2022/05/19 13:57:55;;;;;;;;;;;;;;;52.72;5.22;100967.44;4406864;32;19991;-71
2022/05/19 14:00:22;;;;;;;;;;;;;;;52.33;5.35;100968.56;4408207;32;20496;-72
2022/05/19 14:02:48;;;;;;;;;;;;;;;50.64;5.98;100967.50;4401188;32;20020;-70
2022/05/19 14:05:17;;;;;;;;;;;;;;;50.49;5.97;100959.69;4402963;32;20024;-71
2022/05/19 14:07:43;;;;;;;;;;;;;;;50.77;5.77;100963.22;4399429;32;19997;-72
2022/05/19 14:10:11;;;;;;;;;;;;;;;51.68;5.39;100972.22;4406803;32;20101;-72
2022/05/19 14:12:39;;;;;;;;;;;;;;;51.30;5.56;100968.63;4408698;32;20027;-73
2022/05/19 14:20:18;;;;;;;;;;;;;;;52.17;3.96;100970.59;3942533;32;15723471;-73
2022/05/19 14:22:44;;;;;;;;;;;;;;;52.17;3.96;100970.59;4417493;32;19978;-73
2022/05/19 14:25:11;;;;;;;;;;;;;;;51.22;4.42;100975.22;4424581;32;19965;-71
2022/05/19 14:27:38;;;;;;;;;;;;;;;50.82;4.71;100968.56;4421313;32;20000;-72
2022/05/19 14:30:19;;;;;;;;;;;;;;;51.22;4.18;100969.22;4406485;32;20419;-71